Time;durP1;ratioP1;P1;durP2;ratioP2;P2;SDS_P1;SDS_P2;PMS_P1;PMS_P2;Temp;Humidity;BMP_temperature;BMP_pressure;BME280_temperature;BME280_humidity;BME280_pressure;Samples;Min_cycle;Max_cycle;Signal;HPM_P1;HPM_P2
2023/10/05 00:03:54;;;;;;;11.85;4.10;;;;;;;14.24;100.00;102178.91;5019983;28;20053;-73
2023/10/05 00:06:23;;;;;;;16.58;4.68;;;;;;;14.35;100.00;102189.03;5028726;28;20050;-74
2023/10/05 00:08:52;;;;;;;14.80;4.70;;;;;;;14.40;100.00;102188.78;5026188;28;20038;-73
2023/10/05 00:11:30;;;;;;;19.35;4.57;;;;;;;14.43;100.00;102191.28;5031282;28;20042;-72
2023/10/05 00:13:58;;;;;;;14.20;4.57;;;;;;;14.46;100.00;102192.00;5029247;28;20746;-74
2023/10/05 00:16:31;;;;;;;14.43;4.60;;;;;;;14.51;100.00;102197.13;5027204;28;20049;-74
2023/10/05 00:18:56;;;;;;;19.38;5.10;;;;;;;14.53;100.00;102200.56;5031702;28;20049;-73
2023/10/05 00:21:22;;;;;;;15.00;4.43;;;;;;;14.52;100.00;102192.63;5023869;28;20062;-73
2023/10/05 00:23:57;;;;;;;19.77;4.82;;;;;;;14.53;100.00;102199.72;5031276;28;20713;-73
2023/10/05 00:26:28;;;;;;;19.10;5.03;;;;;;;14.52;100.00;102198.84;5032714;28;20052;-73
2023/10/05 00:29:04;;;;;;;13.98;4.22;;;;;;;14.48;100.00;102202.66;5026566;28;20036;-75
2023/10/05 00:31:30;;;;;;;11.77;4.70;;;;;;;14.54;100.00;102196.91;5022242;28;20104;-74
2023/10/05 00:33:56;;;;;;;12.35;4.57;;;;;;;14.57;100.00;102191.38;5028455;28;20047;-73
2023/10/05 00:36:25;;;;;;;12.60;4.63;;;;;;;14.59;100.00;102196.66;5039905;28;20037;-73
2023/10/05 00:38:51;;;;;;;16.52;5.38;;;;;;;14.56;100.00;102200.41;5033035;28;20045;-74
2023/10/05 00:41:17;;;;;;;11.88;4.20;;;;;;;14.55;100.00;102198.66;5034462;28;20055;-73
2023/10/05 00:43:46;;;;;;;14.18;5.00;;;;;;;14.57;100.00;102201.25;5034653;28;20046;-74
2023/10/05 00:46:12;;;;;;;19.88;4.47;;;;;;;14.50;100.00;102204.28;5031551;28;20043;-73
2023/10/05 00:48:54;;;;;;;18.95;5.03;;;;;;;14.59;100.00;102202.03;5032005;28;20861;-74
2023/10/05 00:51:23;;;;;;;17.17;4.40;;;;;;;14.54;100.00;102196.91;5033485;28;20072;-73
2023/10/05 00:53:52;;;;;;;18.40;5.00;;;;;;;14.53;100.00;102205.06;5035410;28;20100;-73
2023/10/05 00:56:18;;;;;;;19.35;5.43;;;;;;;14.52;100.00;102198.84;5022739;28;20035;-74
2023/10/05 00:58:44;;;;;;;17.20;4.80;;;;;;;14.58;100.00;102201.16;5032330;28;20102;-74
2023/10/05 01:01:22;;;;;;;23.70;4.90;;;;;;;14.60;100.00;102196.56;5021425;28;20049;-73
2023/10/05 01:06:39;;;;;;;21.08;5.00;;;;;;;14.51;100.00;102194.44;5036609;28;20148;-73
2023/10/05 01:09:12;;;;;;;16.50;4.55;;;;;;;14.60;100.00;102187.63;5027493;28;20030;-73
2023/10/05 01:11:43;;;;;;;12.40;4.28;;;;;;;14.61;100.00;102184.00;5031090;28;20030;-74
2023/10/05 01:14:09;;;;;;;13.65;4.38;;;;;;;14.65;100.00;102191.78;5032756;28;20041;-74
2023/10/05 01:16:35;;;;;;;17.27;4.65;;;;;;;14.61;100.00;102189.38;5032215;28;20048;-74
2023/10/05 01:19:07;;;;;;;15.90;3.97;;;;;;;14.60;100.00;102190.31;5032877;28;20048;-73
2023/10/05 01:21:34;;;;;;;19.60;4.80;;;;;;;14.57;100.00;102185.16;5017586;28;20388;-73
2023/10/05 01:24:00;;;;;;;16.30;4.93;;;;;;;14.57;100.00;102186.03;5024009;28;20034;-73
2023/10/05 01:26:26;;;;;;;14.75;4.60;;;;;;;14.58;100.00;102179.69;5033344;28;20033;-74
2023/10/05 01:28:51;;;;;;;16.42;5.35;;;;;;;14.59;100.00;102176.03;5028645;28;20045;-73
2023/10/05 01:31:17;;;;;;;11.55;4.65;;;;;;;14.54;100.00;102177.28;5028009;28;20041;-73
2023/10/05 01:33:43;;;;;;;16.90;4.60;;;;;;;14.56;100.00;102178.94;5026760;28;20042;-73
2023/10/05 01:36:11;;;;;;;13.52;4.55;;;;;;;14.50;100.00;102181.94;5043980;28;20029;-73
2023/10/05 01:38:38;;;;;;;16.90;5.28;;;;;;;14.58;100.00;102177.00;5030792;28;20104;-75
2023/10/05 01:41:09;;;;;;;16.45;5.28;;;;;;;14.58;100.00;102182.38;5027926;28;20044;-73
2023/10/05 01:43:35;;;;;;;13.52;4.60;;;;;;;14.49;100.00;102178.41;5016949;28;20063;-75
2023/10/05 01:46:02;;;;;;;15.73;4.28;;;;;;;14.52;100.00;102180.06;5034928;28;20040;-73
2023/10/05 01:48:30;;;;;;;14.45;4.68;;;;;;;14.53;100.00;102172.88;5027349;28;20045;-73
2023/10/05 01:51:07;;;;;;;15.18;4.20;;;;;;;14.44;100.00;102175.09;5016194;28;20144;-74
2023/10/05 01:53:33;;;;;;;16.77;4.57;;;;;;;14.48;100.00;102174.00;5030778;28;20053;-73
2023/10/05 01:55:59;;;;;;;18.45;5.53;;;;;;;14.40;100.00;102175.34;5025728;28;20030;-73
2023/10/05 01:58:27;;;;;;;19.70;4.95;;;;;;;14.37;100.00;102173.72;5025972;28;20033;-74
2023/10/05 02:00:54;;;;;;;16.73;5.28;;;;;;;14.35;100.00;102169.38;5035037;28;20051;-73
2023/10/05 02:03:23;;;;;;;15.15;4.65;;;;;;;14.33;100.00;102168.63;5037918;28;20101;-73
2023/10/05 02:05:50;;;;;;;17.92;5.20;;;;;;;14.34;100.00;102165.84;5015392;28;20078;-73
2023/10/05 02:08:16;;;;;;;14.60;5.00;;;;;;;14.28;100.00;102168.88;5062567;27;20037;-73
2023/10/05 02:10:46;;;;;;;14.23;4.45;;;;;;;14.21;100.00;102168.38;5020775;28;20035;-73
2023/10/05 02:13:12;;;;;;;11.73;4.90;;;;;;;14.04;100.00;102178.31;5025871;28;20204;-74
2023/10/05 02:15:41;;;;;;;23.33;5.80;;;;;;;14.09;100.00;102173.56;5028134;28;22129;-73
2023/10/05 02:18:22;;;;;;;22.75;4.88;;;;;;;14.04;100.00;102176.50;5021358;28;20169;-73
2023/10/05 02:20:51;;;;;;;15.40;4.35;;;;;;;14.09;100.00;102181.63;5027174;28;20088;-73
2023/10/05 02:23:26;;;;;;;13.55;5.05;;;;;;;13.97;100.00;102175.13;5012311;28;20080;-74
2023/10/05 02:26:05;;;;;;;20.17;5.03;;;;;;;13.94;100.00;102176.16;5019263;28;20119;-73
2023/10/05 02:28:33;;;;;;;12.43;4.72;;;;;;;13.92;100.00;102169.16;5031583;28;20586;-73
2023/10/05 02:31:00;;;;;;;16.83;5.43;;;;;;;13.91;100.00;102162.09;5029647;28;20041;-73
2023/10/05 02:33:31;;;;;;;17.90;5.10;;;;;;;13.83;100.00;102164.31;5023653;28;20150;-73
2023/10/05 02:36:10;;;;;;;16.33;5.20;;;;;;;13.89;100.00;102164.81;5020116;28;20148;-73
2023/10/05 02:38:37;;;;;;;11.27;5.15;;;;;;;13.96;100.00;102162.69;5031118;28;20042;-74
2023/10/05 02:41:05;;;;;;;12.77;5.60;;;;;;;13.95;100.00;102171.66;5031198;28;20056;-73
2023/10/05 02:43:40;;;;;;;19.75;4.80;;;;;;;13.99;100.00;102170.53;5000803;28;20085;-73
2023/10/05 02:46:11;;;;;;;22.02;5.25;;;;;;;14.01;100.00;102163.28;5064328;28;20034;-74
2023/10/05 02:48:41;;;;;;;19.73;5.60;;;;;;;13.97;100.00;102156.38;5029947;28;20136;-74
2023/10/05 02:51:08;;;;;;;19.02;5.53;;;;;;;14.00;100.00;102154.34;5016686;28;20045;-73
2023/10/05 02:53:40;;;;;;;18.98;5.47;;;;;;;13.86;100.00;102145.38;5026111;28;20096;-73
2023/10/05 02:56:26;;;;;;;15.70;5.90;;;;;;;13.80;100.00;102146.56;5026722;28;20038;-73
2023/10/05 02:59:01;;;;;;;15.80;5.28;;;;;;;13.77;100.00;102154.81;5034354;28;20107;-74
2023/10/05 03:01:28;;;;;;;20.58;5.55;;;;;;;13.72;100.00;102152.38;5042014;28;20056;-74
2023/10/05 03:03:55;;;;;;;15.80;5.75;;;;;;;13.72;100.00;102151.50;5029331;28;20045;-73
2023/10/05 03:06:23;;;;;;;18.55;5.90;;;;;;;13.67;100.00;102157.13;5034460;28;20049;-74
2023/10/05 03:08:49;;;;;;;20.35;6.35;;;;;;;13.64;100.00;102156.41;5030692;28;20046;-74
2023/10/05 03:11:18;;;;;;;19.27;5.45;;;;;;;13.57;100.00;102155.91;5023332;28;20065;-74
2023/10/05 03:13:46;;;;;;;17.83;5.50;;;;;;;13.64;100.00;102165.31;5042593;28;20042;-73
2023/10/05 03:16:11;;;;;;;21.92;6.82;;;;;;;13.67;100.00;102164.31;5032002;28;20084;-73
2023/10/05 03:18:42;;;;;;;15.13;6.18;;;;;;;13.70;100.00;102166.81;5018873;28;20029;-73
2023/10/05 03:21:12;;;;;;;22.63;5.20;;;;;;;13.70;100.00;102158.75;5045831;28;20040;-73
2023/10/05 03:23:41;;;;;;;21.60;6.00;;;;;;;13.72;100.00;102159.56;5022123;28;20558;-73
2023/10/05 03:26:09;;;;;;;18.15;5.68;;;;;;;13.82;100.00;102163.44;5028703;28;20041;-74
2023/10/05 03:28:35;;;;;;;15.38;5.40;;;;;;;13.84;100.00;102152.63;5046748;28;20069;-74
2023/10/05 03:31:07;;;;;;;19.42;6.63;;;;;;;13.86;100.00;102156.97;5024910;28;20069;-74
2023/10/05 03:33:36;;;;;;;20.75;6.78;;;;;;;13.86;100.00;102145.38;5018090;28;20034;-73
2023/10/05 03:36:06;;;;;;;17.55;6.35;;;;;;;13.77;100.00;102143.22;5026917;28;20041;-73
2023/10/05 03:38:35;;;;;;;17.75;6.25;;;;;;;13.77;100.00;102148.56;5025436;28;20038;-73
2023/10/05 03:41:04;;;;;;;15.88;6.30;;;;;;;13.71;100.00;102149.78;5029619;28;20041;-73
2023/10/05 03:43:34;;;;;;;21.90;6.05;;;;;;;13.72;100.00;102155.06;5038946;28;20041;-73
2023/10/05 03:46:08;;;;;;;16.95;5.20;;;;;;;13.64;100.00;102159.09;5033560;28;20029;-75
2023/10/05 03:48:41;;;;;;;20.73;6.88;;;;;;;13.63;100.00;102158.25;5033266;28;20076;-73
2023/10/05 03:51:15;;;;;;;20.55;6.25;;;;;;;13.73;100.00;102161.28;5017747;28;20036;-73
2023/10/05 03:53:48;;;;;;;11.65;5.68;;;;;;;13.84;100.00;102163.34;5045576;28;20034;-73
2023/10/05 03:56:19;;;;;;;14.50;5.10;;;;;;;13.80;100.00;102162.66;5034910;28;20041;-73
2023/10/05 03:58:47;;;;;;;21.02;6.13;;;;;;;13.87;100.00;102158.69;5032185;28;20108;-73
2023/10/05 04:01:12;;;;;;;18.75;6.70;;;;;;;13.91;100.00;102173.66;5034695;28;20040;-73
2023/10/05 04:03:40;;;;;;;20.27;6.15;;;;;;;13.91;100.00;102165.63;5032064;28;20812;-73
2023/10/05 04:06:17;;;;;;;20.48;6.60;;;;;;;13.93;100.00;102162.84;5028658;28;20058;-73
2023/10/05 04:08:51;;;;;;;16.83;5.40;;;;;;;13.92;100.00;102170.03;5030689;28;20044;-74
2023/10/05 04:11:17;;;;;;;14.98;5.60;;;;;;;13.97;100.00;102170.63;5023642;28;20526;-74
2023/10/05 04:13:44;;;;;;;20.80;6.50;;;;;;;13.95;100.00;102166.28;5031332;28;20041;-73
2023/10/05 04:16:21;;;;;;;22.50;6.28;;;;;;;13.97;100.00;102164.41;5028713;28;20042;-73
2023/10/05 04:18:53;;;;;;;17.92;7.30;;;;;;;13.96;100.00;102174.28;5031120;28;20036;-73
2023/10/05 04:21:18;;;;;;;24.27;6.20;;;;;;;14.00;100.00;102177.63;5028172;28;20072;-74
2023/10/05 04:23:49;;;;;;;19.40;6.50;;;;;;;14.02;100.00;102177.56;5030302;28;20037;-74
2023/10/05 04:26:19;;;;;;;18.70;6.03;;;;;;;13.99;100.00;102176.75;5067362;27;20145;-73
2023/10/05 04:28:52;;;;;;;16.60;5.95;;;;;;;13.93;100.00;102170.91;5025934;28;20410;-73
2023/10/05 04:31:27;;;;;;;11.98;5.80;;;;;;;13.93;100.00;102174.44;5032110;28;20052;-73
2023/10/05 04:33:55;;;;;;;14.07;5.75;;;;;;;13.83;100.00;102178.59;5030261;28;20053;-74
2023/10/05 04:36:24;;;;;;;20.30;7.20;;;;;;;13.80;100.00;102172.50;5028786;28;20092;-73
2023/10/05 04:38:54;;;;;;;12.50;5.50;;;;;;;13.75;100.00;102175.44;5025785;28;20144;-73
2023/10/05 04:41:39;;;;;;;14.18;6.18;;;;;;;13.63;100.00;102181.50;5033817;28;20080;-74
2023/10/05 04:44:11;;;;;;;17.75;5.85;;;;;;;13.57;100.00;102180.03;5031821;28;20153;-72
2023/10/05 04:46:36;;;;;;;20.92;6.47;;;;;;;13.51;100.00;102175.00;5028161;28;20061;-73
2023/10/05 04:49:08;;;;;;;18.42;6.05;;;;;;;13.59;100.00;102178.13;5029720;28;20040;-74
2023/10/05 04:51:41;;;;;;;24.13;6.85;;;;;;;13.58;100.00;102176.38;5029239;28;20037;-73
2023/10/05 04:54:11;;;;;;;22.98;7.03;;;;;;;13.55;100.00;102173.88;5026754;28;20159;-73
2023/10/05 04:56:43;;;;;;;14.77;6.57;;;;;;;13.50;100.00;102181.28;5027127;28;20148;-74
2023/10/05 05:07:09;;;;;;;21.73;6.95;;;;;;;13.42;100.00;102176.38;5027873;28;20041;-73
2023/10/05 05:09:41;;;;;;;16.00;6.63;;;;;;;13.41;100.00;102174.63;5031855;28;20091;-73
2023/10/05 05:12:09;;;;;;;17.90;6.70;;;;;;;13.48;100.00;102177.84;5029140;28;20930;-73
2023/10/05 05:14:42;;;;;;;21.92;6.55;;;;;;;13.49;100.00;102184.94;5025358;28;20095;-73
2023/10/05 05:17:13;;;;;;;22.75;6.78;;;;;;;13.41;100.00;102177.31;5023081;28;20053;-74
2023/10/05 05:19:39;;;;;;;36.83;7.72;;;;;;;13.42;100.00;102180.84;5029415;28;20034;-74
2023/10/05 05:22:05;;;;;;;18.25;6.30;;;;;;;13.36;100.00;102181.19;5028164;28;20072;-74
2023/10/05 05:24:34;;;;;;;20.67;7.18;;;;;;;13.32;100.00;102187.66;5024458;28;20137;-74
2023/10/05 05:27:03;;;;;;;18.92;7.28;;;;;;;13.24;100.00;102188.06;5027934;28;20113;-74
2023/10/05 05:29:33;;;;;;;21.05;7.28;;;;;;;13.24;100.00;102196.09;5029721;28;20033;-73
2023/10/05 05:32:06;;;;;;;21.20;7.28;;;;;;;13.15;100.00;102191.19;5032360;28;20614;-73
2023/10/05 05:34:32;;;;;;;25.55;8.07;;;;;;;13.15;100.00;102200.09;5032700;28;20045;-74
2023/10/05 05:36:58;;;;;;;17.48;7.22;;;;;;;13.12;100.00;102200.25;5023736;28;22270;-73
2023/10/05 05:39:25;;;;;;;23.80;8.02;;;;;;;13.15;100.00;102199.22;5026980;28;20244;-73
2023/10/05 05:42:05;;;;;;;26.27;7.65;;;;;;;13.13;100.00;102201.13;5027012;28;20029;-73
2023/10/05 05:44:34;;;;;;;19.48;7.60;;;;;;;13.07;100.00;102204.97;5056142;28;20788;-73
2023/10/05 05:47:09;;;;;;;20.95;7.13;;;;;;;13.09;100.00;102215.59;5036626;28;20041;-74
2023/10/05 05:49:38;;;;;;;22.33;7.43;;;;;;;13.02;100.00;102220.41;5026535;28;20037;-74
2023/10/05 05:52:05;;;;;;;18.77;7.53;;;;;;;13.07;100.00;102239.78;5029094;28;20034;-72
2023/10/05 05:54:32;;;;;;;20.35;8.45;;;;;;;13.13;100.00;102228.75;5063542;28;20147;-73
2023/10/05 05:56:57;;;;;;;16.60;7.75;;;;;;;13.25;100.00;102229.97;5029511;28;20080;-72
2023/10/05 05:59:23;;;;;;;19.80;7.60;;;;;;;13.30;100.00;102227.03;5030244;28;20033;-74
2023/10/05 06:01:51;;;;;;;25.15;7.80;;;;;;;13.30;100.00;102230.59;5018628;28;20045;-73
2023/10/05 06:04:17;;;;;;;15.88;7.13;;;;;;;13.43;100.00;102225.47;5030190;28;20587;-71
2023/10/05 06:06:44;;;;;;;18.38;7.05;;;;;;;13.40;100.00;102223.81;5022639;28;20053;-74
2023/10/05 06:09:11;;;;;;;17.02;7.13;;;;;;;13.52;100.00;102221.44;5027910;28;20048;-74
2023/10/05 06:11:38;;;;;;;22.75;7.43;;;;;;;13.55;100.00;102213.19;5026740;28;20041;-75
2023/10/05 06:14:05;;;;;;;15.40;6.05;;;;;;;13.60;100.00;102219.19;5039560;28;20053;-74
2023/10/05 06:16:33;;;;;;;23.83;7.05;;;;;;;13.69;100.00;102213.31;5034158;28;21984;-74
2023/10/05 06:18:59;;;;;;;24.52;7.90;;;;;;;13.69;100.00;102219.56;5026641;28;20092;-75
2023/10/05 06:21:25;;;;;;;18.92;7.55;;;;;;;13.71;100.00;102216.81;5032895;28;20044;-75
2023/10/05 06:23:51;;;;;;;20.27;7.25;;;;;;;13.71;100.00;102228.41;5032415;28;20127;-75
2023/10/05 06:26:16;;;;;;;19.17;6.68;;;;;;;13.77;100.00;102231.69;5027629;28;20068;-74
2023/10/05 06:28:42;;;;;;;31.63;8.43;;;;;;;13.78;100.00;102236.09;5022549;28;20034;-74
2023/10/05 06:31:12;;;;;;;35.10;7.68;;;;;;;13.83;100.00;102231.34;5032270;28;20041;-73
2023/10/05 06:33:41;;;;;;;21.88;7.68;;;;;;;13.79;100.00;102219.91;5027893;28;20071;-74
2023/10/05 06:36:07;;;;;;;25.02;8.40;;;;;;;13.75;100.00;102226.38;5026509;28;20111;-74
2023/10/05 06:38:33;;;;;;;15.93;7.53;;;;;;;13.83;100.00;102225.97;5035684;28;20037;-74
2023/10/05 06:40:58;;;;;;;25.45;8.40;;;;;;;13.81;100.00;102226.09;5033758;28;20035;-74
2023/10/05 06:43:26;;;;;;;24.80;7.70;;;;;;;13.92;100.00;102226.34;5029712;28;20034;-74
2023/10/05 06:45:52;;;;;;;24.15;7.47;;;;;;;13.95;100.00;102222.63;5033963;28;20044;-74
2023/10/05 06:48:18;;;;;;;21.08;7.43;;;;;;;13.96;100.00;102222.56;5034604;28;20045;-75
2023/10/05 06:50:46;;;;;;;17.95;7.25;;;;;;;14.00;100.00;102231.28;5061718;28;20052;-75
2023/10/05 06:53:12;;;;;;;20.15;8.02;;;;;;;14.04;100.00;102231.97;5028292;28;20034;-74
2023/10/05 06:55:39;;;;;;;21.00;8.10;;;;;;;14.10;100.00;102234.31;5026257;28;21650;-74
2023/10/05 06:58:04;;;;;;;18.58;6.78;;;;;;;14.16;100.00;102237.53;5022729;28;20034;-74
2023/10/05 07:00:30;;;;;;;20.55;7.20;;;;;;;14.18;100.00;102241.00;5026236;28;20135;-74
2023/10/05 07:02:59;;;;;;;18.88;7.88;;;;;;;14.31;100.00;102237.59;5047678;28;20040;-74
2023/10/05 07:05:28;;;;;;;16.60;7.95;;;;;;;14.30;100.00;102239.41;5030537;28;20108;-75
2023/10/05 07:07:53;;;;;;;16.42;6.78;;;;;;;14.38;100.00;102245.22;5026812;28;20042;-75
2023/10/05 07:10:19;;;;;;;16.27;7.05;;;;;;;14.40;100.00;102248.69;5033867;28;20101;-74
2023/10/05 07:12:48;;;;;;;18.67;6.95;;;;;;;14.53;100.00;102246.19;5034071;28;20029;-75
2023/10/05 07:15:14;;;;;;;20.92;7.18;;;;;;;14.65;100.00;102247.31;5032319;28;20127;-74
2023/10/05 07:17:41;;;;;;;27.58;7.82;;;;;;;14.66;100.00;102240.97;5035025;28;20041;-74
2023/10/05 07:20:16;;;;;;;20.58;7.35;;;;;;;14.79;100.00;102243.81;5029681;28;20041;-74
2023/10/05 07:22:46;;;;;;;18.10;6.85;;;;;;;14.92;100.00;102245.69;5024662;28;20033;-74
2023/10/05 07:25:14;;;;;;;15.43;6.38;;;;;;;14.96;100.00;102243.69;5029478;28;20041;-74
2023/10/05 07:27:41;;;;;;;14.95;6.22;;;;;;;15.02;100.00;102251.41;5031958;28;20033;-74
2023/10/05 07:30:11;;;;;;;15.98;6.93;;;;;;;15.11;100.00;102252.66;5027881;28;20061;-75
2023/10/05 07:32:37;;;;;;;21.98;7.15;;;;;;;15.20;100.00;102260.16;5030363;28;20119;-74
2023/10/05 07:35:07;;;;;;;23.55;7.32;;;;;;;15.28;100.00;102264.13;5027193;28;20041;-74
2023/10/05 07:37:35;;;;;;;28.33;8.35;;;;;;;15.15;100.00;102268.50;5034083;28;20037;-74
2023/10/05 07:40:04;;;;;;;15.75;7.38;;;;;;;15.27;100.00;102278.53;5030761;28;20046;-74
2023/10/05 07:42:30;;;;;;;20.25;6.85;;;;;;;15.28;100.00;102280.25;5020669;28;20037;-75
2023/10/05 07:44:56;;;;;;;24.45;7.43;;;;;;;15.45;100.00;102281.03;5026577;28;20030;-73
2023/10/05 07:47:22;;;;;;;26.08;7.22;;;;;;;15.45;100.00;102289.97;5026462;28;21019;-74
2023/10/05 07:49:47;;;;;;;18.30;7.80;;;;;;;15.57;100.00;102285.69;5034272;28;20079;-74
2023/10/05 07:52:14;;;;;;;20.60;8.45;;;;;;;15.73;100.00;102285.66;5029763;28;20910;-75
2023/10/05 07:54:40;;;;;;;20.77;8.35;;;;;;;15.77;100.00;102290.75;5034384;28;20045;-74
2023/10/05 07:57:09;;;;;;;20.70;8.02;;;;;;;15.86;100.00;102291.97;5030103;28;20144;-74
2023/10/05 07:59:42;;;;;;;24.05;9.27;;;;;;;15.97;100.00;102292.19;5022815;28;20041;-74
2023/10/05 08:02:10;;;;;;;23.88;7.97;;;;;;;16.16;100.00;102294.56;5033317;28;20079;-74
2023/10/05 08:04:37;;;;;;;16.33;7.25;;;;;;;16.24;100.00;102291.38;5030294;28;20037;-74
2023/10/05 08:07:03;;;;;;;21.00;8.43;;;;;;;16.21;100.00;102303.19;5032163;28;20065;-74
2023/10/05 08:09:29;;;;;;;23.88;8.40;;;;;;;16.18;100.00;102311.50;5032096;28;20033;-75
2023/10/05 08:11:57;;;;;;;22.13;8.05;;;;;;;16.37;100.00;102302.25;5030113;28;20034;-75
2023/10/05 08:14:24;;;;;;;21.05;7.82;;;;;;;16.45;100.00;102305.28;5029395;28;20049;-74
2023/10/05 08:16:55;;;;;;;18.92;7.20;;;;;;;16.69;100.00;102309.06;5030838;28;20056;-74
2023/10/05 08:19:24;;;;;;;17.50;7.47;;;;;;;16.62;100.00;102304.19;5026502;28;20037;-75
2023/10/05 08:21:52;;;;;;;21.45;7.65;;;;;;;16.59;100.00;102299.88;5034717;28;20208;-74
2023/10/05 08:24:17;;;;;;;14.20;6.18;;;;;;;16.52;100.00;102301.25;5031063;28;20037;-74
2023/10/05 08:26:43;;;;;;;22.00;7.60;;;;;;;16.44;100.00;102303.56;5024933;28;21634;-74
2023/10/05 08:29:09;;;;;;;15.90;6.97;;;;;;;16.60;100.00;102306.13;5026158;28;21426;-75
2023/10/05 08:31:36;;;;;;;18.83;7.07;;;;;;;16.69;100.00;102310.91;5027016;28;20033;-75
2023/10/05 08:34:03;;;;;;;17.17;7.35;;;;;;;16.72;100.00;102311.63;5032552;28;20092;-75
2023/10/05 08:36:30;;;;;;;24.20;7.30;;;;;;;16.83;100.00;102306.38;5030699;28;20041;-74
2023/10/05 08:38:56;;;;;;;20.08;6.70;;;;;;;17.03;100.00;102307.75;5029045;28;20100;-74
2023/10/05 08:41:35;;;;;;;17.48;6.57;;;;;;;17.19;100.00;102304.88;5031183;28;20056;-74
2023/10/05 08:46:47;;;;;;;13.15;6.82;;;;;;;17.28;100.00;102309.63;5022141;28;20045;-75
2023/10/05 08:49:15;;;;;;;16.45;6.55;;;;;;;17.37;100.00;102313.56;5031351;28;20071;-75
2023/10/05 08:51:41;;;;;;;13.60;6.18;;;;;;;17.41;100.00;102312.34;5027586;28;20523;-74
2023/10/05 08:54:11;;;;;;;16.02;6.32;;;;;;;17.67;100.00;102299.78;5025879;28;20048;-74
2023/10/05 08:56:41;;;;;;;19.95;6.18;;;;;;;17.50;100.00;102308.16;5032973;28;20180;-74
2023/10/05 08:59:08;;;;;;;15.27;6.05;;;;;;;17.75;100.00;102304.66;5027541;28;20029;-75
2023/10/05 09:01:34;;;;;;;15.07;5.30;;;;;;;18.05;100.00;102302.47;5028320;28;20099;-74
2023/10/05 09:06:30;;;;;;;16.10;6.10;;;;;;;18.13;100.00;102309.16;5028920;28;20049;-74
2023/10/05 09:11:32;;;;;;;17.40;5.72;;;;;;;18.07;100.00;102318.53;5030098;28;20121;-74
2023/10/05 09:14:27;;;;;;;21.83;6.20;;;;;;;18.25;100.00;102329.88;5029429;28;20945;-74
2023/10/05 09:17:04;;;;;;;19.85;6.00;;;;;;;18.30;100.00;102323.16;5031591;28;20033;-75
2023/10/05 09:19:33;;;;;;;17.88;6.38;;;;;;;18.26;100.00;102329.75;5019623;28;20040;-75
2023/10/05 09:24:29;;;;;;;18.88;5.63;;;;;;;18.06;100.00;102344.69;5030854;28;20131;-74
2023/10/05 09:27:09;;;;;;;15.75;5.55;;;;;;;18.17;100.00;102338.50;5026486;28;20034;-75
2023/10/05 09:29:36;;;;;;;19.95;5.53;;;;;;;18.15;100.00;102343.16;5027479;28;20029;-74
2023/10/05 09:32:08;;;;;;;20.83;6.03;;;;;;;18.07;100.00;102353.63;5030572;28;20036;-73
2023/10/05 09:34:33;;;;;;;;;;;;;;;18.05;100.00;102358.31;5031004;28;20046;-76
2023/10/05 09:37:05;;;;;;;11.70;5.85;;;;;;;18.11;100.00;102358.72;5031960;28;19917;-74
2023/10/05 09:39:35;;;;;;;18.67;5.63;;;;;;;18.29;100.00;102358.41;5031532;28;20369;-74
2023/10/05 09:42:03;;;;;;;14.25;5.53;;;;;;;18.27;100.00;102368.41;5027134;28;20052;-74
2023/10/05 09:44:31;;;;;;;21.38;6.50;;;;;;;18.15;100.00;102372.00;5027099;28;20033;-74
2023/10/05 09:46:59;;;;;;;20.80;6.82;;;;;;;18.13;100.00;102374.84;5032408;28;20040;-74
2023/10/05 09:49:27;;;;;;;14.80;5.85;;;;;;;17.99;100.00;102386.59;5032673;28;20037;-75
2023/10/05 09:51:54;;;;;;;15.50;5.03;;;;;;;17.97;100.00;102384.94;5030632;28;20059;-74
2023/10/05 09:54:22;;;;;;;20.27;5.32;;;;;;;18.10;100.00;102370.50;5048811;28;20045;-74
2023/10/05 09:56:49;;;;;;;10.57;5.10;;;;;;;17.93;100.00;102387.03;5029801;28;20038;-74
2023/10/05 09:59:16;;;;;;;20.83;5.85;;;;;;;18.01;100.00;102381.94;5031883;28;20144;-74
2023/10/05 10:01:48;;;;;;;13.73;4.68;;;;;;;18.11;100.00;102369.50;5029809;28;20033;-75
2023/10/05 10:04:28;;;;;;;15.70;5.72;;;;;;;17.93;100.00;102362.75;5056170;28;20042;-73
2023/10/05 10:06:55;;;;;;;23.55;4.75;;;;;;;18.04;100.00;102360.13;5024620;28;20056;-73
2023/10/05 10:09:26;;;;;;;13.60;4.60;;;;;;;18.40;100.00;102357.63;5029727;28;20041;-74
2023/10/05 10:11:57;;;;;;;13.52;4.97;;;;;;;18.68;100.00;102356.47;5025395;28;20042;-74
2023/10/05 10:14:26;;;;;;;19.88;5.68;;;;;;;18.64;100.00;102356.69;5027719;28;20049;-74
2023/10/05 10:17:00;;;;;;;16.52;4.53;;;;;;;18.75;100.00;102355.94;5026394;28;20068;-74
2023/10/05 10:19:26;;;;;;;17.25;4.95;;;;;;;18.80;100.00;102353.75;5029016;28;20189;-75
2023/10/05 10:22:07;;;;;;;15.70;4.53;;;;;;;18.97;100.00;102341.66;5035121;28;20203;-74
2023/10/05 10:24:34;;;;;;;12.65;4.05;;;;;;;18.97;100.00;102349.78;5029834;28;20042;-74
2023/10/05 10:27:08;;;;;;;13.75;4.80;;;;;;;18.95;100.00;102345.50;5029585;28;20034;-75
2023/10/05 10:29:55;;;;;;;14.10;5.20;;;;;;;18.90;100.00;102345.81;5028629;28;20459;-74
2023/10/05 10:32:31;;;;;;;17.50;5.13;;;;;;;19.00;100.00;102344.16;5033586;28;20064;-75
2023/10/05 10:35:06;;;;;;;17.25;4.68;;;;;;;19.09;99.76;102353.44;5030706;28;20951;-74
2023/10/05 10:37:42;;;;;;;17.50;4.80;;;;;;;18.91;99.25;102347.53;5019986;28;20080;-75
2023/10/05 10:42:54;;;;;;;17.35;4.57;;;;;;;19.15;99.60;102348.41;5032555;28;20124;-74
2023/10/05 10:45:28;;;;;;;15.75;4.55;;;;;;;19.04;99.63;102359.19;5020541;28;20041;-74
2023/10/05 10:47:54;;;;;;;13.15;4.13;;;;;;;18.82;99.57;102354.50;5025808;28;20084;-74
2023/10/05 10:50:24;;;;;;;23.75;5.00;;;;;;;19.18;99.53;102368.06;5026774;28;20124;-75
2023/10/05 10:52:55;;;;;;;16.33;4.60;;;;;;;19.09;99.18;102358.84;5026837;28;20065;-75
2023/10/05 10:55:26;;;;;;;18.83;4.03;;;;;;;19.31;99.12;102352.66;5023198;28;20124;-74
2023/10/05 10:57:55;;;;;;;9.82;3.97;;;;;;;19.46;98.50;102353.31;5021278;28;20038;-74
2023/10/05 11:03:11;;;;;;;12.80;4.22;;;;;;;19.45;96.39;102355.16;5029644;28;20129;-74
2023/10/05 11:05:52;;;;;;;10.38;4.03;;;;;;;19.49;96.76;102353.97;5028529;28;20045;-74
2023/10/05 11:08:20;;;;;;;18.85;4.80;;;;;;;19.50;95.18;102347.56;5023860;28;20292;-74
2023/10/05 11:10:59;;;;;;;18.13;4.53;;;;;;;19.68;95.49;102353.44;5061166;28;20030;-74
2023/10/05 11:13:26;;;;;;;10.85;4.05;;;;;;;19.92;94.91;102356.91;5020009;28;20041;-74
2023/10/05 11:15:59;;;;;;;9.45;4.25;;;;;;;20.05;94.19;102361.38;5022488;28;20040;-75
2023/10/05 11:18:34;;;;;;;17.20;4.75;;;;;;;19.57;94.43;102369.59;5025481;28;20044;-74
2023/10/05 11:21:05;;;;;;;17.42;4.85;;;;;;;19.76;95.10;102360.94;5029095;28;20883;-74
2023/10/05 11:23:42;;;;;;;14.75;4.80;;;;;;;19.73;93.87;102348.53;5030887;28;20029;-75
2023/10/05 11:26:26;;;;;;;13.75;4.53;;;;;;;19.60;93.58;102356.72;5027184;28;20034;-74
2023/10/05 11:28:53;;;;;;;16.15;5.03;;;;;;;19.49;94.19;102361.22;5034720;28;20601;-74
2023/10/05 11:31:33;;;;;;;19.45;4.93;;;;;;;19.72;94.50;102362.16;5026543;28;20038;-74
2023/10/05 11:34:03;;;;;;;16.40;5.13;;;;;;;19.67;94.63;102357.97;5024241;28;21029;-74
2023/10/05 11:36:33;;;;;;;14.05;4.63;;;;;;;19.62;94.68;102354.75;5021918;28;20034;-73
2023/10/05 11:39:00;;;;;;;21.48;5.07;;;;;;;19.87;93.81;102355.53;5026800;28;20033;-74
2023/10/05 11:41:28;;;;;;;16.88;4.90;;;;;;;19.94;92.36;102345.13;5024702;28;20033;-73
2023/10/05 11:43:58;;;;;;;13.45;4.28;;;;;;;19.86;92.88;102353.81;5031345;28;20033;-74
2023/10/05 11:46:42;;;;;;;14.70;3.95;;;;;;;20.16;93.81;102345.13;5026064;28;20057;-75
2023/10/05 11:49:10;;;;;;;17.30;4.35;;;;;;;20.08;91.93;102345.75;5024855;28;20057;-74